Time,TemperatureF,DewpointF,PressureIn,WindDirection,WindDirectionDegrees,WindSpeedMPH,WindSpeedGustMPH,Humidity,HourlyPrecipIn,Conditions,Clouds,dailyrainin,SoftwareType,DateUTC
2013-02-16 00:01:00,11.1,0.3,30.23,West,281,1.0,3.0,61,0.00,,,0.00,Wunderground v.1.15,2013-02-16 06:01:00,
2013-02-16 00:07:00,10.9,0.1,30.23,WNW,282,1.0,3.0,61,0.00,,,0.00,Wunderground v.1.15,2013-02-16 06:07:00,
2013-02-16 00:13:00,10.9,0.1,30.23,West,278,0.0,1.0,61,0.00,,,0.00,Wunderground v.1.15,2013-02-16 06:13:00,
2013-02-16 00:18:00,10.7,-0.1,30.22,WNW,292,1.0,3.0,61,0.00,,,0.00,Wunderground v.1.15,2013-02-16 06:18:00,
2013-02-16 00:24:00,10.5,-0.3,30.22,WNW,299,1.0,2.0,61,0.00,,,0.00,Wunderground v.1.15,2013-02-16 06:24:00,
2013-02-16 00:29:00,10.4,-0.1,30.22,WNW,282,0.0,2.0,62,0.00,,,0.00,Wunderground v.1.15,2013-02-16 06:29:00,
2013-02-16 00:35:00,10.2,-0.2,30.22,WNW,287,0.0,0.0,62,0.00,,,0.00,Wunderground v.1.15,2013-02-16 06:35:00,
2013-02-16 00:41:00,10.2,-0.2,30.22,WNW,288,1.0,1.0,62,0.00,,,0.00,Wunderground v.1.15,2013-02-16 06:41:00,
2013-02-16 00:46:00,10.0,-0.4,30.22,West,275,1.0,1.0,62,0.00,,,0.00,Wunderground v.1.15,2013-02-16 06:46:00,
2013-02-16 00:51:00,10.0,-0.4,30.22,West,277,0.0,0.0,62,0.00,,,0.00,Wunderground v.1.15,2013-02-16 06:51:00,
2013-02-16 00:56:00,9.9,-0.5,30.22,WNW,287,0.0,0.0,62,0.00,,,0.00,Wunderground v.1.15,2013-02-16 06:56:00,
2013-02-16 01:01:00,9.7,-0.7,30.22,West,281,0.0,0.0,62,0.00,,,0.00,Wunderground v.1.15,2013-02-16 07:01:00,
2013-02-16 01:07:00,9.7,-0.7,30.22,WNW,287,0.0,3.0,62,0.00,,,0.00,Wunderground v.1.15,2013-02-16 07:07:00,
2013-02-16 01:12:00,9.5,-0.9,30.22,WNW,295,0.0,0.0,62,0.00,,,0.00,Wunderground v.1.15,2013-02-16 07:12:00,
2013-02-16 01:17:00,9.3,-1.1,30.22,West,281,0.0,0.0,62,0.00,,,0.00,Wunderground v.1.15,2013-02-16 07:17:00,
2013-02-16 01:22:00,9.3,-0.8,30.22,WNW,291,0.0,0.0,63,0.00,,,0.00,Wunderground v.1.15,2013-02-16 07:22:00,
2013-02-16 01:27:00,9.2,-0.9,30.22,West,280,0.0,2.0,63,0.00,,,0.00,Wunderground v.1.15,2013-02-16 07:27:00,
2013-02-16 01:32:00,9.2,-0.9,30.22,West,280,0.0,0.0,63,0.00,,,0.00,Wunderground v.1.15,2013-02-16 07:32:00,
2013-02-16 01:38:00,9.0,-1.1,30.22,WNW,287,0.0,1.0,63,0.00,,,0.00,Wunderground v.1.15,2013-02-16 07:38:00,
2013-02-16 01:44:00,8.8,-1.2,30.22,West,271,0.0,0.0,63,0.00,,,0.00,Wunderground v.1.15,2013-02-16 07:44:00,
2013-02-16 01:50:00,8.8,-1.2,30.22,West,271,0.0,0.0,63,0.00,,,0.00,Wunderground v.1.15,2013-02-16 07:50:00,
2013-02-16 01:56:00,8.6,-1.4,30.22,West,278,0.0,0.0,63,0.00,,,0.00,Wunderground v.1.15,2013-02-16 07:56:00,
2013-02-16 02:01:00,8.6,-1.4,30.22,WNW,294,0.0,0.0,63,0.00,,,0.00,Wunderground v.1.15,2013-02-16 08:01:00,
2013-02-16 02:08:00,8.4,-1.6,30.22,WNW,289,0.0,2.0,63,0.00,,,0.00,Wunderground v.1.15,2013-02-16 08:08:00,
2013-02-16 02:13:00,8.4,-1.3,30.22,NW,306,1.0,3.0,64,0.00,,,0.00,Wunderground v.1.15,2013-02-16 08:13:00,
2013-02-16 02:18:00,8.4,-1.3,30.22,NW,306,1.0,3.0,64,0.00,,,0.00,Wunderground v.1.15,2013-02-16 08:18:00,
2013-02-16 02:24:00,8.4,-1.3,30.22,WSW,253,0.0,1.0,64,0.00,,,0.00,Wunderground v.1.15,2013-02-16 08:24:00,
2013-02-16 02:29:00,8.4,-1.3,30.21,WSW,254,0.0,1.0,64,0.00,,,0.00,Wunderground v.1.15,2013-02-16 08:29:00,
2013-02-16 02:34:00,8.3,-1.4,30.21,WSW,254,0.0,0.0,64,0.00,,,0.00,Wunderground v.1.15,2013-02-16 08:34:00,
2013-02-16 02:39:00,8.3,-1.4,30.21,WNW,285,0.0,0.0,64,0.00,,,0.00,Wunderground v.1.15,2013-02-16 08:39:00,
2013-02-16 02:45:00,8.1,-1.6,30.21,WNW,285,0.0,0.0,64,0.00,,,0.00,Wunderground v.1.15,2013-02-16 08:45:00,
2013-02-16 02:50:00,8.1,-1.6,30.21,WNW,285,0.0,0.0,64,0.00,,,0.00,Wunderground v.1.15,2013-02-16 08:50:00,
2013-02-16 02:56:00,8.1,-1.6,30.21,WNW,282,0.0,0.0,64,0.00,,,0.00,Wunderground v.1.15,2013-02-16 08:56:00,
2013-02-16 03:01:00,7.9,-1.8,30.20,WNW,282,0.0,0.0,64,0.00,,,0.00,Wunderground v.1.15,2013-02-16 09:01:00,
2013-02-16 03:07:00,7.9,-1.8,30.20,WNW,284,0.0,0.0,64,0.00,,,0.00,Wunderground v.1.15,2013-02-16 09:07:00,
2013-02-16 03:13:00,7.7,-2.0,30.19,WNW,284,0.0,0.0,64,0.00,,,0.00,Wunderground v.1.15,2013-02-16 09:13:00,
2013-02-16 03:19:00,7.7,-2.0,30.19,WNW,287,0.0,4.0,64,0.00,,,0.00,Wunderground v.1.15,2013-02-16 09:19:00,
2013-02-16 03:24:00,7.6,-2.1,30.19,WNW,282,0.0,0.0,64,0.00,,,0.00,Wunderground v.1.15,2013-02-16 09:24:00,
2013-02-16 03:29:00,7.6,-1.7,30.19,West,268,0.0,1.0,65,0.00,,,0.00,Wunderground v.1.15,2013-02-16 09:29:00,
2013-02-16 03:35:00,7.6,-1.7,30.19,WNW,284,0.0,0.0,65,0.00,,,0.00,Wunderground v.1.15,2013-02-16 09:35:00,
2013-02-16 03:40:00,7.4,-1.9,30.19,West,281,0.0,0.0,65,0.00,,,0.00,Wunderground v.1.15,2013-02-16 09:40:00,
2013-02-16 03:46:00,7.4,-1.9,30.19,WSW,251,0.0,0.0,65,0.00,,,0.00,Wunderground v.1.15,2013-02-16 09:46:00,
2013-02-16 03:52:00,7.4,-1.9,30.19,West,274,0.0,0.0,65,0.00,,,0.00,Wunderground v.1.15,2013-02-16 09:52:00,
2013-02-16 03:57:00,7.2,-2.1,30.19,West,265,0.0,0.0,65,0.00,,,0.00,Wunderground v.1.15,2013-02-16 09:57:00,
2013-02-16 04:02:00,7.2,-2.1,30.19,West,265,0.0,0.0,65,0.00,,,0.00,Wunderground v.1.15,2013-02-16 10:02:00,
2013-02-16 04:07:00,7.2,-2.1,30.19,West,267,0.0,0.0,65,0.00,,,0.00,Wunderground v.1.15,2013-02-16 10:07:00,
2013-02-16 04:13:00,7.2,-2.1,30.19,West,267,0.0,0.0,65,0.00,,,0.00,Wunderground v.1.15,2013-02-16 10:13:00,
2013-02-16 04:18:00,7.0,-2.0,30.20,WNW,289,0.0,0.0,66,0.00,,,0.00,Wunderground v.1.15,2013-02-16 10:18:00,
2013-02-16 04:23:00,7.0,-2.0,30.20,WNW,289,0.0,0.0,66,0.00,,,0.00,Wunderground v.1.15,2013-02-16 10:23:00,
2013-02-16 04:28:00,7.0,-2.0,30.20,WNW,289,0.0,0.0,66,0.00,,,0.00,Wunderground v.1.15,2013-02-16 10:28:00,
2013-02-16 04:33:00,6.9,-2.1,30.20,WNW,289,0.0,0.0,66,0.00,,,0.00,Wunderground v.1.15,2013-02-16 10:33:00,
2013-02-16 04:39:00,6.9,-2.1,30.20,WNW,291,0.0,0.0,66,0.00,,,0.00,Wunderground v.1.15,2013-02-16 10:39:00,
2013-02-16 04:44:00,6.7,-2.3,30.20,WNW,291,0.0,0.0,66,0.00,,,0.00,Wunderground v.1.15,2013-02-16 10:44:00,
2013-02-16 04:50:00,6.7,-2.3,30.20,WNW,291,0.0,0.0,66,0.00,,,0.00,Wunderground v.1.15,2013-02-16 10:50:00,
2013-02-16 04:55:00,6.5,-2.5,30.20,WNW,291,0.0,0.0,66,0.00,,,0.00,Wunderground v.1.15,2013-02-16 10:55:00,
2013-02-16 05:00:00,6.5,-2.5,30.19,WNW,291,0.0,0.0,66,0.00,,,0.00,Wunderground v.1.15,2013-02-16 11:00:00,
2013-02-16 05:05:00,6.5,-2.5,30.19,WNW,291,0.0,0.0,66,0.00,,,0.00,Wunderground v.1.15,2013-02-16 11:05:00,
2013-02-16 05:10:00,6.5,-2.5,30.19,West,278,0.0,0.0,66,0.00,,,0.00,Wunderground v.1.15,2013-02-16 11:10:00,
2013-02-16 05:16:00,6.3,-2.6,30.20,West,278,0.0,0.0,66,0.00,,,0.00,Wunderground v.1.15,2013-02-16 11:16:00,
2013-02-16 05:22:00,6.3,-2.6,30.20,West,278,0.0,0.0,66,0.00,,,0.00,Wunderground v.1.15,2013-02-16 11:22:00,
2013-02-16 05:27:00,6.1,-2.5,30.20,WSW,248,0.0,0.0,67,0.00,,,0.00,Wunderground v.1.15,2013-02-16 11:27:00,
2013-02-16 05:32:00,6.1,-2.5,30.19,WSW,248,0.0,0.0,67,0.00,,,0.00,Wunderground v.1.15,2013-02-16 11:32:00,
2013-02-16 05:37:00,6.0,-2.6,30.19,WSW,248,0.0,0.0,67,0.00,,,0.00,Wunderground v.1.15,2013-02-16 11:37:00,
2013-02-16 05:43:00,6.0,-2.6,30.19,WSW,248,0.0,0.0,67,0.00,,,0.00,Wunderground v.1.15,2013-02-16 11:43:00,
2013-02-16 05:48:00,6.0,-2.6,30.20,WSW,248,0.0,0.0,67,0.00,,,0.00,Wunderground v.1.15,2013-02-16 11:48:00,
2013-02-16 05:54:00,6.0,-2.6,30.20,WSW,248,0.0,0.0,67,0.00,,,0.00,Wunderground v.1.15,2013-02-16 11:54:00,
2013-02-16 05:59:00,6.0,-2.6,30.19,WSW,248,0.0,0.0,67,0.00,,,0.00,Wunderground v.1.15,2013-02-16 11:59:00,
2013-02-16 06:04:00,6.0,-2.6,30.19,WSW,248,0.0,0.0,67,0.00,,,0.00,Wunderground v.1.15,2013-02-16 12:04:00,
2013-02-16 06:10:00,5.8,-2.5,30.19,WSW,248,0.0,0.0,68,0.00,,,0.00,Wunderground v.1.15,2013-02-16 12:10:00,
2013-02-16 06:16:00,5.8,-2.5,30.19,WSW,248,0.0,0.0,68,0.00,,,0.00,Wunderground v.1.15,2013-02-16 12:16:00,
2013-02-16 06:22:00,5.8,-2.5,30.19,WSW,248,0.0,0.0,68,0.00,,,0.00,Wunderground v.1.15,2013-02-16 12:22:00,
2013-02-16 06:27:00,5.6,-2.7,30.19,WSW,248,0.0,0.0,68,0.00,,,0.00,Wunderground v.1.15,2013-02-16 12:27:00,
2013-02-16 06:32:00,5.6,-2.7,30.19,WSW,248,0.0,0.0,68,0.00,,,0.00,Wunderground v.1.15,2013-02-16 12:32:00,
2013-02-16 06:37:00,5.6,-2.7,30.19,WSW,248,0.0,0.0,68,0.00,,,0.00,Wunderground v.1.15,2013-02-16 12:37:00,
2013-02-16 06:43:00,5.6,-2.7,30.19,WSW,248,0.0,0.0,68,0.00,,,0.00,Wunderground v.1.15,2013-02-16 12:43:00,
2013-02-16 06:48:00,5.6,-2.4,30.19,WSW,248,0.0,0.0,69,0.00,,,0.00,Wunderground v.1.15,2013-02-16 12:48:00,
2013-02-16 06:53:00,5.6,-2.4,30.19,WSW,246,0.0,0.0,69,0.00,,,0.00,Wunderground v.1.15,2013-02-16 12:53:00,
2013-02-16 06:59:00,5.6,-2.4,30.20,SW,215,0.0,0.0,69,0.00,,,0.00,Wunderground v.1.15,2013-02-16 12:59:00,
2013-02-16 07:05:00,5.6,-2.1,30.20,WNW,287,0.0,0.0,70,0.00,,,0.00,Wunderground v.1.15,2013-02-16 13:05:00,
2013-02-16 07:10:00,5.6,-2.1,30.20,WNW,287,0.0,0.0,70,0.00,,,0.00,Wunderground v.1.15,2013-02-16 13:10:00,
2013-02-16 07:16:00,5.8,-1.9,30.20,WNW,287,0.0,0.0,70,0.00,,,0.00,Wunderground v.1.15,2013-02-16 13:16:00,
2013-02-16 07:22:00,6.0,-1.7,30.20,WNW,287,0.0,0.0,70,0.00,,,0.00,Wunderground v.1.15,2013-02-16 13:22:00,
2013-02-16 07:28:00,6.1,-1.3,30.20,WSW,256,0.0,2.0,71,0.00,,,0.00,Wunderground v.1.15,2013-02-16 13:28:00,
2013-02-16 07:33:00,6.3,-1.1,30.21,West,265,0.0,0.0,71,0.00,,,0.00,Wunderground v.1.15,2013-02-16 13:33:00,
2013-02-16 07:39:00,6.5,-0.9,30.21,West,272,0.0,2.0,71,0.00,,,0.00,Wunderground v.1.15,2013-02-16 13:39:00,
2013-02-16 07:45:00,6.9,-0.5,30.20,West,277,1.0,2.0,71,0.00,,,0.00,Wunderground v.1.15,2013-02-16 13:45:00,
2013-02-16 07:50:00,7.0,-0.1,30.20,WNW,282,1.0,1.0,72,0.00,,,0.00,Wunderground v.1.15,2013-02-16 13:50:00,
2013-02-16 07:56:00,7.4,0.3,30.20,West,267,0.0,4.0,72,0.00,,,0.00,Wunderground v.1.15,2013-02-16 13:56:00,
2013-02-16 08:01:00,7.7,0.5,30.21,WSW,258,0.0,0.0,72,0.00,,,0.00,Wunderground v.1.15,2013-02-16 14:01:00,
2013-02-16 08:07:00,8.1,0.9,30.21,West,267,0.0,2.0,72,0.00,,,0.00,Wunderground v.1.15,2013-02-16 14:07:00,
2013-02-16 08:13:00,8.4,1.2,30.21,West,270,0.0,0.0,72,0.00,,,0.00,Wunderground v.1.15,2013-02-16 14:13:00,
2013-02-16 08:19:00,8.8,1.6,30.21,WNW,295,0.0,3.0,72,0.00,,,0.00,Wunderground v.1.15,2013-02-16 14:19:00,
2013-02-16 08:24:00,9.2,2.0,30.21,WNW,301,1.0,3.0,72,0.00,,,0.00,Wunderground v.1.15,2013-02-16 14:24:00,
2013-02-16 08:30:00,9.5,2.3,30.21,West,280,2.0,2.0,72,0.00,,,0.00,Wunderground v.1.15,2013-02-16 14:30:00,
2013-02-16 08:36:00,9.9,2.4,30.21,West,263,2.0,6.0,71,0.00,,,0.00,Wunderground v.1.15,2013-02-16 14:36:00,
2013-02-16 08:41:00,10.2,2.7,30.21,WSW,258,1.0,2.0,71,0.00,,,0.00,Wunderground v.1.15,2013-02-16 14:41:00,
2013-02-16 08:46:00,10.5,2.9,30.22,NW,318,1.0,4.0,71,0.00,,,0.00,Wunderground v.1.15,2013-02-16 14:46:00,
2013-02-16 08:52:00,10.7,3.1,30.22,West,280,2.0,6.0,71,0.00,,,0.00,Wunderground v.1.15,2013-02-16 14:52:00,
2013-02-16 08:58:00,10.9,3.3,30.22,WNW,292,2.0,6.0,71,0.00,,,0.00,Wunderground v.1.15,2013-02-16 14:58:00,
2013-02-16 09:03:00,11.1,3.2,30.22,West,260,2.0,6.0,70,0.00,,,0.00,Wunderground v.1.15,2013-02-16 15:03:00,
2013-02-16 09:09:00,11.4,3.5,30.22,West,268,2.0,6.0,70,0.00,,,0.00,Wunderground v.1.15,2013-02-16 15:09:00,
2013-02-16 09:15:00,11.7,3.8,30.21,West,277,1.0,3.0,70,0.00,,,0.00,Wunderground v.1.15,2013-02-16 15:15:00,
2013-02-16 09:21:00,11.9,3.7,30.21,WNW,285,3.0,4.0,69,0.00,,,0.00,Wunderground v.1.15,2013-02-16 15:21:00,
2013-02-16 09:27:00,12.3,4.1,30.21,WSW,250,2.0,5.0,69,0.00,,,0.00,Wunderground v.1.15,2013-02-16 15:27:00,
2013-02-16 09:33:00,12.6,4.0,30.22,NW,318,1.0,6.0,68,0.00,,,0.00,Wunderground v.1.15,2013-02-16 15:33:00,
2013-02-16 09:38:00,12.8,4.2,30.22,WNW,294,2.0,6.0,68,0.00,,,0.00,Wunderground v.1.15,2013-02-16 15:38:00,
2013-02-16 09:43:00,13.1,4.5,30.22,West,264,1.0,4.0,68,0.00,,,0.00,Wunderground v.1.15,2013-02-16 15:43:00,
2013-02-16 09:48:00,13.3,4.4,30.22,WNW,295,2.0,5.0,67,0.00,,,0.00,Wunderground v.1.15,2013-02-16 15:48:00,
2013-02-16 09:54:00,13.6,4.7,30.22,West,275,2.0,4.0,67,0.00,,,0.00,Wunderground v.1.15,2013-02-16 15:54:00,
2013-02-16 10:00:00,14.0,4.7,30.22,NW,316,1.0,3.0,66,0.00,,,0.00,Wunderground v.1.15,2013-02-16 16:00:00,
2013-02-16 10:05:00,14.1,4.8,30.22,NW,304,1.0,5.0,66,0.00,,,0.00,Wunderground v.1.15,2013-02-16 16:05:00,
2013-02-16 10:10:00,14.3,4.3,30.22,WNW,291,1.0,1.0,64,0.00,,,0.00,Wunderground v.1.15,2013-02-16 16:10:00,
2013-02-16 10:17:00,14.4,4.1,30.22,WNW,299,1.0,1.0,63,0.00,,,0.00,Wunderground v.1.15,2013-02-16 16:17:00,
2013-02-16 10:23:00,14.8,4.5,30.22,NNE,20,1.0,6.0,63,0.00,,,0.00,Wunderground v.1.15,2013-02-16 16:23:00,
2013-02-16 10:29:00,15.1,4.8,30.22,WNW,285,2.0,6.0,63,0.00,,,0.00,Wunderground v.1.15,2013-02-16 16:29:00,
2013-02-16 10:34:00,15.2,4.5,30.22,NW,323,2.0,2.0,62,0.00,,,0.00,Wunderground v.1.15,2013-02-16 16:34:00,
2013-02-16 10:39:00,15.4,4.7,30.22,NW,315,2.0,4.0,62,0.00,,,0.00,Wunderground v.1.15,2013-02-16 16:39:00,
2013-02-16 10:45:00,15.6,4.5,30.22,NW,304,3.0,7.0,61,0.00,,,0.00,Wunderground v.1.15,2013-02-16 16:45:00,
2013-02-16 10:50:00,16.1,5.0,30.22,NNW,339,3.0,3.0,61,0.00,,,0.00,Wunderground v.1.15,2013-02-16 16:50:00,
2013-02-16 10:55:00,16.4,4.6,30.22,NW,309,3.0,6.0,59,0.00,,,0.00,Wunderground v.1.15,2013-02-16 16:55:00,
2013-02-16 11:00:00,16.9,4.7,30.21,NW,318,4.0,4.0,58,0.00,,,0.00,Wunderground v.1.15,2013-02-16 17:00:00,
2013-02-16 11:06:00,17.5,5.2,30.21,WNW,296,3.0,5.0,58,0.00,,,0.00,Wunderground v.1.15,2013-02-16 17:06:00,
2013-02-16 11:11:00,17.8,4.3,30.21,North,350,3.0,6.0,55,0.00,,,0.00,Wunderground v.1.15,2013-02-16 17:11:00,
2013-02-16 11:16:00,17.8,3.9,30.21,WNW,294,2.0,6.0,54,0.00,,,0.00,Wunderground v.1.15,2013-02-16 17:16:00,
2013-02-16 11:22:00,17.7,3.8,30.21,WNW,298,2.0,2.0,54,0.00,,,0.00,Wunderground v.1.15,2013-02-16 17:22:00,
2013-02-16 11:27:00,17.3,3.5,30.21,NW,318,2.0,3.0,54,0.00,,,0.00,Wunderground v.1.15,2013-02-16 17:27:00,
2013-02-16 11:33:00,17.0,3.2,30.21,NW,308,2.0,5.0,54,0.00,,,0.00,Wunderground v.1.15,2013-02-16 17:33:00,
2013-02-16 11:38:00,16.9,3.5,30.21,WNW,294,2.0,5.0,55,0.00,,,0.00,Wunderground v.1.15,2013-02-16 17:38:00,
2013-02-16 11:44:00,16.7,3.7,30.20,WNW,287,3.0,7.0,56,0.00,,,0.00,Wunderground v.1.15,2013-02-16 17:44:00,
2013-02-16 11:49:00,16.5,3.9,30.20,NNW,335,4.0,7.0,57,0.00,,,0.00,Wunderground v.1.15,2013-02-16 17:49:00,
2013-02-16 11:55:00,17.3,3.5,30.20,WNW,288,3.0,6.0,54,0.00,,,0.00,Wunderground v.1.15,2013-02-16 17:55:00,
2013-02-16 12:00:00,18.0,3.7,30.20,NW,306,3.0,7.0,53,0.00,,,0.00,Wunderground v.1.15,2013-02-16 18:00:00,
2013-02-16 12:06:00,17.8,2.7,30.20,NW,309,4.0,8.0,51,0.00,,,0.00,Wunderground v.1.15,2013-02-16 18:06:00,
2013-02-16 12:11:00,17.8,2.3,30.20,NNW,336,3.0,5.0,50,0.00,,,0.00,Wunderground v.1.15,2013-02-16 18:11:00,
2013-02-16 12:16:00,17.7,2.2,30.20,North,357,3.0,5.0,50,0.00,,,0.00,Wunderground v.1.15,2013-02-16 18:16:00,
2013-02-16 12:22:00,17.7,1.7,30.20,West,281,3.0,6.0,49,0.00,,,0.00,Wunderground v.1.15,2013-02-16 18:22:00,
2013-02-16 12:27:00,18.0,2.0,30.20,NW,319,3.0,7.0,49,0.00,,,0.00,Wunderground v.1.15,2013-02-16 18:27:00,
2013-02-16 12:33:00,17.8,1.8,30.19,NW,323,2.0,6.0,49,0.00,,,0.00,Wunderground v.1.15,2013-02-16 18:33:00,
2013-02-16 12:39:00,17.8,1.4,30.19,West,268,1.0,6.0,48,0.00,,,0.00,Wunderground v.1.15,2013-02-16 18:39:00,
2013-02-16 12:44:00,17.8,1.4,30.19,North,357,2.0,2.0,48,0.00,,,0.00,Wunderground v.1.15,2013-02-16 18:44:00,
2013-02-16 12:50:00,18.3,1.4,30.19,NW,316,2.0,2.0,47,0.00,,,0.00,Wunderground v.1.15,2013-02-16 18:50:00,
2013-02-16 12:56:00,19.1,1.7,30.19,NNW,337,2.0,5.0,46,0.00,,,0.00,Wunderground v.1.15,2013-02-16 18:56:00,
2013-02-16 13:01:00,18.6,0.7,30.19,NNW,330,3.0,3.0,45,0.00,,,0.00,Wunderground v.1.15,2013-02-16 19:01:00,
2013-02-16 13:07:00,18.4,1.0,30.19,West,278,2.0,5.0,46,0.00,,,0.00,Wunderground v.1.15,2013-02-16 19:07:00,
2013-02-16 13:13:00,18.3,1.4,30.19,West,277,3.0,3.0,47,0.00,,,0.00,Wunderground v.1.15,2013-02-16 19:13:00,
2013-02-16 13:18:00,18.4,1.5,30.19,WNW,285,4.0,5.0,47,0.00,,,0.00,Wunderground v.1.15,2013-02-16 19:18:00,
2013-02-16 13:24:00,18.9,2.0,30.19,NNW,347,4.0,5.0,47,0.00,,,0.00,Wunderground v.1.15,2013-02-16 19:24:00,
2013-02-16 13:29:00,19.1,1.7,30.18,NNW,347,3.0,5.0,46,0.00,,,0.00,Wunderground v.1.15,2013-02-16 19:29:00,
2013-02-16 13:34:00,19.1,1.7,30.18,North,357,2.0,3.0,46,0.00,,,0.00,Wunderground v.1.15,2013-02-16 19:34:00,
2013-02-16 13:40:00,19.2,1.3,30.18,NW,316,1.0,1.0,45,0.00,,,0.00,Wunderground v.1.15,2013-02-16 19:40:00,
2013-02-16 13:46:00,19.4,0.5,30.18,North,0,1.0,2.0,43,0.00,,,0.00,Wunderground v.1.15,2013-02-16 19:46:00,
2013-02-16 13:51:00,19.7,1.8,30.18,North,1,1.0,4.0,45,0.00,,,0.00,Wunderground v.1.15,2013-02-16 19:51:00,
2013-02-16 13:56:00,19.9,2.4,30.18,WNW,291,2.0,4.0,46,0.00,,,0.00,Wunderground v.1.15,2013-02-16 19:56:00,
2013-02-16 14:01:00,20.2,2.2,30.18,SW,234,1.0,3.0,45,0.00,,,0.00,Wunderground v.1.15,2013-02-16 20:01:00,
2013-02-16 14:07:00,20.3,2.8,30.18,NW,304,2.0,7.0,46,0.00,,,0.00,Wunderground v.1.15,2013-02-16 20:07:00,
2013-02-16 14:13:00,20.3,2.3,30.18,NW,305,3.0,7.0,45,0.00,,,0.00,Wunderground v.1.15,2013-02-16 20:13:00,
2013-02-16 14:18:00,20.5,2.0,30.17,NW,315,3.0,7.0,44,0.00,,,0.00,Wunderground v.1.15,2013-02-16 20:18:00,
2013-02-16 14:23:00,20.5,1.5,30.17,NNW,346,1.0,2.0,43,0.00,,,0.00,Wunderground v.1.15,2013-02-16 20:23:00,
2013-02-16 14:29:00,19.9,0.5,30.17,West,267,1.0,5.0,42,0.00,,,0.00,Wunderground v.1.15,2013-02-16 20:29:00,
2013-02-16 14:34:00,19.5,1.1,30.17,NW,309,1.0,2.0,44,0.00,,,0.00,Wunderground v.1.15,2013-02-16 20:34:00,
2013-02-16 14:39:00,19.2,0.8,30.17,NW,322,1.0,2.0,44,0.00,,,0.00,Wunderground v.1.15,2013-02-16 20:39:00,
2013-02-16 14:45:00,19.1,0.2,30.18,NW,313,1.0,5.0,43,0.00,,,0.00,Wunderground v.1.15,2013-02-16 20:45:00,
2013-02-16 14:50:00,19.1,1.2,30.18,WNW,288,1.0,3.0,45,0.00,,,0.00,Wunderground v.1.15,2013-02-16 20:50:00,
2013-02-16 14:56:00,19.2,0.3,30.18,WNW,289,1.0,5.0,43,0.00,,,0.00,Wunderground v.1.15,2013-02-16 20:56:00,
2013-02-16 15:02:00,19.5,1.1,30.18,WNW,295,1.0,7.0,44,0.00,,,0.00,Wunderground v.1.15,2013-02-16 21:02:00,
2013-02-16 15:07:00,19.9,1.0,30.18,NW,308,2.0,7.0,43,0.00,,,0.00,Wunderground v.1.15,2013-02-16 21:07:00,
2013-02-16 15:13:00,20.5,2.0,30.18,WNW,296,1.0,2.0,44,0.00,,,0.00,Wunderground v.1.15,2013-02-16 21:13:00,
2013-02-16 15:19:00,20.5,1.0,30.18,WNW,294,1.0,5.0,42,0.00,,,0.00,Wunderground v.1.15,2013-02-16 21:19:00,
2013-02-16 15:24:00,20.6,1.6,30.18,WSW,253,1.0,3.0,43,0.00,,,0.00,Wunderground v.1.15,2013-02-16 21:24:00,
2013-02-16 15:30:00,20.6,1.6,30.18,West,263,1.0,2.0,43,0.00,,,0.00,Wunderground v.1.15,2013-02-16 21:30:00,
2013-02-16 15:35:00,20.8,2.3,30.18,West,270,1.0,5.0,44,0.00,,,0.00,Wunderground v.1.15,2013-02-16 21:35:00,
2013-02-16 15:40:00,20.6,1.6,30.18,WNW,295,1.0,1.0,43,0.00,,,0.00,Wunderground v.1.15,2013-02-16 21:40:00,
2013-02-16 15:46:00,20.2,0.7,30.18,WNW,285,3.0,5.0,42,0.00,,,0.00,Wunderground v.1.15,2013-02-16 21:46:00,
2013-02-16 15:51:00,19.9,1.0,30.18,WNW,302,3.0,3.0,43,0.00,,,0.00,Wunderground v.1.15,2013-02-16 21:51:00,
2013-02-16 15:57:00,19.5,0.1,30.18,West,275,1.0,5.0,42,0.00,,,0.00,Wunderground v.1.15,2013-02-16 21:57:00,
2013-02-16 16:03:00,19.2,0.3,30.19,NW,312,2.0,2.0,43,0.00,,,0.00,Wunderground v.1.15,2013-02-16 22:03:00,
2013-02-16 16:08:00,18.9,0.1,30.19,WNW,298,2.0,6.0,43,0.00,,,0.00,Wunderground v.1.15,2013-02-16 22:08:00,
2013-02-16 16:13:00,18.6,0.3,30.19,NW,313,2.0,5.0,44,0.00,,,0.00,Wunderground v.1.15,2013-02-16 22:13:00,
2013-02-16 16:19:00,18.4,-0.4,30.19,West,264,1.0,6.0,43,0.00,,,0.00,Wunderground v.1.15,2013-02-16 22:19:00,
2013-02-16 16:24:00,18.4,-0.4,30.19,NW,304,1.0,3.0,43,0.00,,,0.00,Wunderground v.1.15,2013-02-16 22:24:00,
2013-02-16 16:30:00,18.3,0.0,30.19,WNW,289,0.0,0.0,44,0.00,,,0.00,Wunderground v.1.15,2013-02-16 22:30:00,
2013-02-16 16:35:00,18.1,0.3,30.19,WNW,301,0.0,3.0,45,0.00,,,0.00,Wunderground v.1.15,2013-02-16 22:35:00,
2013-02-16 16:40:00,18.0,-0.3,30.19,NW,315,1.0,1.0,44,0.00,,,0.00,Wunderground v.1.15,2013-02-16 22:40:00,
2013-02-16 16:46:00,17.5,-0.7,30.19,NNW,333,1.0,4.0,44,0.00,,,0.00,Wunderground v.1.15,2013-02-16 22:46:00,
2013-02-16 16:52:00,17.2,-1.0,30.19,NNW,343,1.0,1.0,44,0.00,,,0.00,Wunderground v.1.15,2013-02-16 22:52:00,
2013-02-16 16:57:00,16.7,-1.0,30.19,NW,304,1.0,4.0,45,0.00,,,0.00,Wunderground v.1.15,2013-02-16 22:57:00,
2013-02-16 17:02:00,16.5,-0.7,30.19,NW,304,1.0,2.0,46,0.00,,,0.00,Wunderground v.1.15,2013-02-16 23:02:00,
2013-02-16 17:07:00,16.4,-0.8,30.19,NW,325,0.0,2.0,46,0.00,,,0.00,Wunderground v.1.15,2013-02-16 23:07:00,
2013-02-16 17:13:00,16.1,-1.1,30.19,NW,308,0.0,1.0,46,0.00,,,0.00,Wunderground v.1.15,2013-02-16 23:13:00,
2013-02-16 17:18:00,15.7,-1.4,30.20,NW,309,1.0,5.0,46,0.00,,,0.00,Wunderground v.1.15,2013-02-16 23:18:00,
2013-02-16 17:24:00,15.6,-1.1,30.20,WNW,285,0.0,1.0,47,0.00,,,0.00,Wunderground v.1.15,2013-02-16 23:24:00,
2013-02-16 17:29:00,15.4,-0.8,30.21,NNW,329,0.0,1.0,48,0.00,,,0.00,Wunderground v.1.15,2013-02-16 23:29:00,
2013-02-16 17:34:00,15.1,-1.1,30.21,NW,315,0.0,0.0,48,0.00,,,0.00,Wunderground v.1.15,2013-02-16 23:34:00,
2013-02-16 17:40:00,14.9,-1.3,30.21,NW,316,0.0,0.0,48,0.00,,,0.00,Wunderground v.1.15,2013-02-16 23:40:00,
2013-02-16 17:45:00,14.8,-0.9,30.21,NW,316,0.0,0.0,49,0.00,,,0.00,Wunderground v.1.15,2013-02-16 23:45:00,
2013-02-16 17:51:00,14.6,-1.1,30.21,NW,305,0.0,0.0,49,0.00,,,0.00,Wunderground v.1.15,2013-02-16 23:51:00,
2013-02-16 17:57:00,14.4,-1.3,30.21,NW,305,0.0,0.0,49,0.00,,,0.00,Wunderground v.1.15,2013-02-16 23:57:00,
2013-02-16 18:02:00,14.1,-1.2,30.22,NW,305,0.0,0.0,50,0.00,,,0.00,Wunderground v.1.15,2013-02-17 00:02:00,
2013-02-16 18:07:00,14.0,-1.3,30.22,NW,305,0.0,0.0,50,0.00,,,0.00,Wunderground v.1.15,2013-02-17 00:07:00,
2013-02-16 18:13:00,13.8,-1.4,30.22,NW,305,0.0,0.0,50,0.00,,,0.00,Wunderground v.1.15,2013-02-17 00:13:00,
2013-02-16 18:18:00,13.6,-1.2,30.22,NW,305,0.0,0.0,51,0.00,,,0.00,Wunderground v.1.15,2013-02-17 00:18:00,
2013-02-16 18:23:00,13.5,-1.3,30.22,NW,305,0.0,0.0,51,0.00,,,0.00,Wunderground v.1.15,2013-02-17 00:23:00,
2013-02-16 18:28:00,13.3,-1.5,30.22,NW,305,0.0,0.0,51,0.00,,,0.00,Wunderground v.1.15,2013-02-17 00:28:00,
2013-02-16 18:33:00,13.1,-1.7,30.23,NW,305,0.0,0.0,51,0.00,,,0.00,Wunderground v.1.15,2013-02-17 00:33:00,
2013-02-16 18:39:00,12.9,-1.4,30.23,NW,305,0.0,0.0,52,0.00,,,0.00,Wunderground v.1.15,2013-02-17 00:39:00,
2013-02-16 18:45:00,12.6,-1.7,30.23,NW,305,0.0,0.0,52,0.00,,,0.00,Wunderground v.1.15,2013-02-17 00:45:00,
2013-02-16 18:50:00,12.4,-1.9,30.23,NW,305,0.0,0.0,52,0.00,,,0.00,Wunderground v.1.15,2013-02-17 00:50:00,
2013-02-16 18:55:00,12.3,-2.0,30.23,NW,305,0.0,0.0,52,0.00,,,0.00,Wunderground v.1.15,2013-02-17 00:55:00,
2013-02-16 19:00:00,12.1,-1.8,30.23,NW,305,0.0,0.0,53,0.00,,,0.00,Wunderground v.1.15,2013-02-17 01:00:00,
2013-02-16 19:06:00,11.9,-2.0,30.23,NW,305,0.0,0.0,53,0.00,,,0.00,Wunderground v.1.15,2013-02-17 01:06:00,
2013-02-16 19:11:00,11.6,-2.3,30.23,NW,305,0.0,0.0,53,0.00,,,0.00,Wunderground v.1.15,2013-02-17 01:11:00,
2013-02-16 19:16:00,11.4,-2.4,30.23,NW,305,0.0,0.0,53,0.00,,,0.00,Wunderground v.1.15,2013-02-17 01:16:00,
2013-02-16 19:22:00,11.2,-2.6,30.23,NW,305,0.0,0.0,53,0.00,,,0.00,Wunderground v.1.15,2013-02-17 01:22:00,
2013-02-16 19:28:00,10.9,-2.9,30.23,NW,305,0.0,0.0,53,0.00,,,0.00,Wunderground v.1.15,2013-02-17 01:28:00,
2013-02-16 19:33:00,10.7,-2.7,30.23,NW,305,0.0,0.0,54,0.00,,,0.00,Wunderground v.1.15,2013-02-17 01:33:00,
2013-02-16 19:38:00,10.4,-2.6,30.23,NW,305,0.0,0.0,55,0.00,,,0.00,Wunderground v.1.15,2013-02-17 01:38:00,
2013-02-16 19:44:00,10.2,-2.8,30.23,NW,305,0.0,0.0,55,0.00,,,0.00,Wunderground v.1.15,2013-02-17 01:44:00,
2013-02-16 19:49:00,10.0,-3.0,30.23,NW,305,0.0,0.0,55,0.00,,,0.00,Wunderground v.1.15,2013-02-17 01:49:00,
2013-02-16 19:55:00,9.7,-3.3,30.23,NW,305,0.0,0.0,55,0.00,,,0.00,Wunderground v.1.15,2013-02-17 01:55:00,
2013-02-16 20:00:00,9.5,-3.1,30.23,NW,305,0.0,0.0,56,0.00,,,0.00,Wunderground v.1.15,2013-02-17 02:00:00,
2013-02-16 20:05:00,9.3,-3.3,30.23,NW,305,0.0,0.0,56,0.00,,,0.00,Wunderground v.1.15,2013-02-17 02:05:00,
2013-02-16 20:11:00,9.2,-3.3,30.23,NW,305,0.0,0.0,56,0.00,,,0.00,Wunderground v.1.15,2013-02-17 02:11:00,
2013-02-16 20:16:00,9.0,-3.2,30.22,NW,305,0.0,0.0,57,0.00,,,0.00,Wunderground v.1.15,2013-02-17 02:16:00,
2013-02-16 20:22:00,8.8,-3.0,30.22,NW,305,0.0,0.0,58,0.00,,,0.00,Wunderground v.1.15,2013-02-17 02:22:00,
2013-02-16 20:27:00,8.6,-3.2,30.22,NW,305,0.0,0.0,58,0.00,,,0.00,Wunderground v.1.15,2013-02-17 02:27:00,
2013-02-16 20:33:00,8.4,-3.0,30.22,NW,305,0.0,0.0,59,0.00,,,0.00,Wunderground v.1.15,2013-02-17 02:33:00,
2013-02-16 20:38:00,8.4,-3.0,30.22,NW,305,0.0,0.0,59,0.00,,,0.00,Wunderground v.1.15,2013-02-17 02:38:00,
2013-02-16 20:44:00,8.3,-3.1,30.23,NW,305,0.0,0.0,59,0.00,,,0.00,Wunderground v.1.15,2013-02-17 02:44:00,
2013-02-16 20:49:00,8.1,-3.3,30.23,NW,305,0.0,0.0,59,0.00,,,0.00,Wunderground v.1.15,2013-02-17 02:49:00,
2013-02-16 20:54:00,7.9,-3.5,30.23,NW,305,0.0,0.0,59,0.00,,,0.00,Wunderground v.1.15,2013-02-17 02:54:00,
2013-02-16 21:00:00,7.7,-3.7,30.23,NW,305,0.0,0.0,59,0.00,,,0.00,Wunderground v.1.15,2013-02-17 03:00:00,
2013-02-16 21:05:00,7.6,-3.8,30.23,NW,305,0.0,0.0,59,0.00,,,0.00,Wunderground v.1.15,2013-02-17 03:05:00,
2013-02-16 21:10:00,7.4,-4.0,30.23,NW,305,0.0,0.0,59,0.00,,,0.00,Wunderground v.1.15,2013-02-17 03:10:00,
2013-02-16 21:16:00,7.2,-3.8,30.23,NW,305,0.0,0.0,60,0.00,,,0.00,Wunderground v.1.15,2013-02-17 03:16:00,
2013-02-16 21:22:00,7.0,-4.0,30.23,NW,305,0.0,0.0,60,0.00,,,0.00,Wunderground v.1.15,2013-02-17 03:22:00,
2013-02-16 21:27:00,7.0,-4.0,30.23,NW,305,0.0,0.0,60,0.00,,,0.00,Wunderground v.1.15,2013-02-17 03:27:00,
2013-02-16 21:32:00,6.9,-4.1,30.23,NW,305,0.0,0.0,60,0.00,,,0.00,Wunderground v.1.15,2013-02-17 03:32:00,
2013-02-16 21:37:00,6.9,-4.1,30.23,NW,305,0.0,0.0,60,0.00,,,0.00,Wunderground v.1.15,2013-02-17 03:37:00,
2013-02-16 21:43:00,6.7,-3.9,30.23,NW,305,0.0,0.0,61,0.00,,,0.00,Wunderground v.1.15,2013-02-17 03:43:00,
2013-02-16 21:49:00,6.5,-4.1,30.23,NW,305,0.0,0.0,61,0.00,,,0.00,Wunderground v.1.15,2013-02-17 03:49:00,
2013-02-16 21:54:00,6.5,-3.8,30.23,NW,305,0.0,0.0,62,0.00,,,0.00,Wunderground v.1.15,2013-02-17 03:54:00,
2013-02-16 21:59:00,6.3,-4.0,30.23,NW,305,0.0,0.0,62,0.00,,,0.00,Wunderground v.1.15,2013-02-17 03:59:00,
2013-02-16 22:04:00,6.3,-4.0,30.23,NW,305,0.0,0.0,62,0.00,,,0.00,Wunderground v.1.15,2013-02-17 04:04:00,
2013-02-16 22:09:00,6.1,-4.1,30.23,NW,305,0.0,0.0,62,0.00,,,0.00,Wunderground v.1.15,2013-02-17 04:09:00,
2013-02-16 22:14:00,6.0,-4.2,30.23,NW,305,0.0,0.0,62,0.00,,,0.00,Wunderground v.1.15,2013-02-17 04:14:00,
2013-02-16 22:19:00,6.0,-4.2,30.23,NW,305,0.0,0.0,62,0.00,,,0.00,Wunderground v.1.15,2013-02-17 04:19:00,
2013-02-16 22:25:00,5.8,-4.1,30.23,NW,305,0.0,0.0,63,0.00,,,0.00,Wunderground v.1.15,2013-02-17 04:25:00,
2013-02-16 22:31:00,5.8,-4.1,30.23,NW,305,0.0,0.0,63,0.00,,,0.00,Wunderground v.1.15,2013-02-17 04:31:00,
2013-02-16 22:37:00,5.6,-4.0,30.23,NW,305,0.0,0.0,64,0.00,,,0.00,Wunderground v.1.15,2013-02-17 04:37:00,
2013-02-16 22:43:00,5.4,-4.2,30.23,NW,305,0.0,0.0,64,0.00,,,0.00,Wunderground v.1.15,2013-02-17 04:43:00,
2013-02-16 22:48:00,5.4,-4.2,30.23,NW,305,0.0,0.0,64,0.00,,,0.00,Wunderground v.1.15,2013-02-17 04:48:00,
2013-02-16 22:53:00,5.2,-4.3,30.23,NW,305,0.0,0.0,64,0.00,,,0.00,Wunderground v.1.15,2013-02-17 04:53:00,
2013-02-16 22:59:00,5.0,-4.5,30.22,NW,305,0.0,0.0,64,0.00,,,0.00,Wunderground v.1.15,2013-02-17 04:59:00,
2013-02-16 23:00:00,5.0,-4.5,30.22,NW,305,0.0,0.0,64,0.00,,,0.00,Wunderground v.1.15,2013-02-17 05:00:00,
2013-02-16 23:01:00,5.0,-4.5,30.22,NW,305,0.0,0.0,64,0.00,,,0.00,Wunderground v.1.15,2013-02-17 05:01:00,
2013-02-16 23:03:00,5.0,-4.5,30.22,NW,305,0.0,0.0,64,0.00,,,0.00,Wunderground v.1.15,2013-02-17 05:03:00,
2013-02-16 23:07:00,4.8,-4.7,30.22,NW,305,0.0,0.0,64,0.00,,,0.00,Wunderground v.1.15,2013-02-17 05:07:00,
2013-02-16 23:12:00,4.8,-4.7,30.22,NW,305,0.0,0.0,64,0.00,,,0.00,Wunderground v.1.15,2013-02-17 05:12:00,
2013-02-16 23:17:00,4.7,-4.5,30.22,NW,305,0.0,0.0,65,0.00,,,0.00,Wunderground v.1.15,2013-02-17 05:17:00,
2013-02-16 23:23:00,4.7,-4.5,30.22,NW,305,0.0,0.0,65,0.00,,,0.00,Wunderground v.1.15,2013-02-17 05:23:00,
2013-02-16 23:28:00,4.5,-4.7,30.22,NW,305,0.0,0.0,65,0.00,,,0.00,Wunderground v.1.15,2013-02-17 05:28:00,
2013-02-16 23:33:00,4.5,-4.7,30.22,NW,305,0.0,0.0,65,0.00,,,0.00,Wunderground v.1.15,2013-02-17 05:33:00,
2013-02-16 23:39:00,4.3,-4.9,30.22,NW,305,0.0,0.0,65,0.00,,,0.00,Wunderground v.1.15,2013-02-17 05:39:00,
2013-02-16 23:45:00,4.1,-5.1,30.22,NW,305,0.0,0.0,65,0.00,,,0.00,Wunderground v.1.15,2013-02-17 05:45:00,
2013-02-16 23:51:00,4.1,-5.1,30.22,NW,305,0.0,0.0,65,0.00,,,0.00,Wunderground v.1.15,2013-02-17 05:51:00,
2013-02-16 23:57:00,3.9,-4.9,30.22,NW,305,0.0,0.0,66,0.00,,,0.00,Wunderground v.1.15,2013-02-17 05:57:00,